sensor_id;sensor_type;location;lat;lon;timestamp;P1;durP1;ratioP1;P2;durP2;ratioP2
48042;SDS011;33988;47.992;8.820;2024-01-07T00:02:10;2.40;;;2.03;;
48042;SDS011;33988;47.992;8.820;2024-01-07T00:04:37;2.78;;;2.40;;
48042;SDS011;33988;47.992;8.820;2024-01-07T00:07:04;4.03;;;2.92;;
48042;SDS011;33988;47.992;8.820;2024-01-07T00:09:33;3.70;;;3.30;;
48042;SDS011;33988;47.992;8.820;2024-01-07T00:12:00;3.78;;;2.97;;
48042;SDS011;33988;47.992;8.820;2024-01-07T00:14:27;3.83;;;3.13;;
48042;SDS011;33988;47.992;8.820;2024-01-07T00:16:54;4.90;;;3.30;;
48042;SDS011;33988;47.992;8.820;2024-01-07T00:19:21;4.63;;;3.65;;
48042;SDS011;33988;47.992;8.820;2024-01-07T00:21:48;4.10;;;3.40;;
48042;SDS011;33988;47.992;8.820;2024-01-07T00:24:16;4.63;;;3.30;;
48042;SDS011;33988;47.992;8.820;2024-01-07T00:26:45;3.63;;;2.92;;
48042;SDS011;33988;47.992;8.820;2024-01-07T00:29:14;3.38;;;2.78;;
48042;SDS011;33988;47.992;8.820;2024-01-07T00:31:41;3.60;;;2.90;;
48042;SDS011;33988;47.992;8.820;2024-01-07T00:34:08;3.33;;;2.67;;
48042;SDS011;33988;47.992;8.820;2024-01-07T00:36:35;2.75;;;2.38;;
48042;SDS011;33988;47.992;8.820;2024-01-07T00:39:02;2.53;;;2.10;;
48042;SDS011;33988;47.992;8.820;2024-01-07T00:41:32;2.75;;;2.20;;
48042;SDS011;33988;47.992;8.820;2024-01-07T00:43:59;2.53;;;2.03;;
48042;SDS011;33988;47.992;8.820;2024-01-07T00:46:25;3.15;;;2.08;;
48042;SDS011;33988;47.992;8.820;2024-01-07T00:48:56;2.25;;;2.00;;
48042;SDS011;33988;47.992;8.820;2024-01-07T00:51:23;2.72;;;2.00;;
48042;SDS011;33988;47.992;8.820;2024-01-07T00:53:53;2.63;;;1.92;;
48042;SDS011;33988;47.992;8.820;2024-01-07T00:56:20;2.25;;;1.92;;
48042;SDS011;33988;47.992;8.820;2024-01-07T00:58:49;2.45;;;2.05;;
48042;SDS011;33988;47.992;8.820;2024-01-07T01:01:16;2.28;;;2.08;;
48042;SDS011;33988;47.992;8.820;2024-01-07T01:03:43;2.20;;;2.00;;
48042;SDS011;33988;47.992;8.820;2024-01-07T01:06:10;2.10;;;1.90;;
48042;SDS011;33988;47.992;8.820;2024-01-07T01:08:38;2.38;;;1.98;;
48042;SDS011;33988;47.992;8.820;2024-01-07T01:11:08;2.42;;;2.10;;
48042;SDS011;33988;47.992;8.820;2024-01-07T01:13:36;2.33;;;1.95;;
48042;SDS011;33988;47.992;8.820;2024-01-07T01:16:03;2.08;;;1.88;;
48042;SDS011;33988;47.992;8.820;2024-01-07T01:18:33;2.95;;;2.05;;
48042;SDS011;33988;47.992;8.820;2024-01-07T01:21:02;2.88;;;2.10;;
48042;SDS011;33988;47.992;8.820;2024-01-07T01:23:30;2.72;;;2.00;;
48042;SDS011;33988;47.992;8.820;2024-01-07T01:25:59;2.20;;;2.00;;
48042;SDS011;33988;47.992;8.820;2024-01-07T01:28:27;2.90;;;2.08;;
48042;SDS011;33988;47.992;8.820;2024-01-07T01:30:56;3.00;;;2.25;;
48042;SDS011;33988;47.992;8.820;2024-01-07T01:33:23;2.53;;;2.08;;
48042;SDS011;33988;47.992;8.820;2024-01-07T01:35:50;3.40;;;2.10;;
48042;SDS011;33988;47.992;8.820;2024-01-07T01:38:17;2.80;;;2.15;;
48042;SDS011;33988;47.992;8.820;2024-01-07T01:40:50;2.97;;;1.88;;
48042;SDS011;33988;47.992;8.820;2024-01-07T01:43:24;3.30;;;2.13;;
48042;SDS011;33988;47.992;8.820;2024-01-07T01:45:52;2.33;;;1.85;;
48042;SDS011;33988;47.992;8.820;2024-01-07T01:48:21;2.78;;;1.77;;
48042;SDS011;33988;47.992;8.820;2024-01-07T01:50:50;2.70;;;2.20;;
48042;SDS011;33988;47.992;8.820;2024-01-07T01:53:19;2.35;;;2.15;;
48042;SDS011;33988;47.992;8.820;2024-01-07T01:55:50;2.08;;;1.88;;
48042;SDS011;33988;47.992;8.820;2024-01-07T01:58:24;5.30;;;1.80;;
48042;SDS011;33988;47.992;8.820;2024-01-07T02:00:54;2.25;;;2.05;;
48042;SDS011;33988;47.992;8.820;2024-01-07T02:03:23;2.65;;;2.05;;
48042;SDS011;33988;47.992;8.820;2024-01-07T02:05:51;2.00;;;1.73;;
48042;SDS011;33988;47.992;8.820;2024-01-07T02:08:21;2.20;;;2.00;;
48042;SDS011;33988;47.992;8.820;2024-01-07T02:10:49;3.45;;;2.13;;
48042;SDS011;33988;47.992;8.820;2024-01-07T02:13:15;2.45;;;2.10;;
48042;SDS011;33988;47.992;8.820;2024-01-07T02:15:43;2.45;;;2.03;;
48042;SDS011;33988;47.992;8.820;2024-01-07T02:18:10;2.40;;;1.98;;
48042;SDS011;33988;47.992;8.820;2024-01-07T02:20:37;2.22;;;2.03;;
48042;SDS011;33988;47.992;8.820;2024-01-07T02:23:04;2.15;;;1.80;;
48042;SDS011;33988;47.992;8.820;2024-01-07T02:25:37;2.50;;;2.03;;
48042;SDS011;33988;47.992;8.820;2024-01-07T02:28:05;2.80;;;2.28;;
48042;SDS011;33988;47.992;8.820;2024-01-07T02:30:32;3.45;;;2.60;;
48042;SDS011;33988;47.992;8.820;2024-01-07T02:33:03;3.03;;;2.35;;
48042;SDS011;33988;47.992;8.820;2024-01-07T02:35:31;2.25;;;2.03;;
48042;SDS011;33988;47.992;8.820;2024-01-07T02:37:58;3.03;;;2.17;;
48042;SDS011;33988;47.992;8.820;2024-01-07T02:40:25;3.05;;;2.20;;
48042;SDS011;33988;47.992;8.820;2024-01-07T02:42:52;3.30;;;2.50;;
48042;SDS011;33988;47.992;8.820;2024-01-07T02:45:21;2.22;;;2.03;;
48042;SDS011;33988;47.992;8.820;2024-01-07T02:47:49;3.25;;;2.10;;
48042;SDS011;33988;47.992;8.820;2024-01-07T02:50:16;3.50;;;2.53;;
48042;SDS011;33988;47.992;8.820;2024-01-07T02:52:43;3.08;;;2.60;;
48042;SDS011;33988;47.992;8.820;2024-01-07T02:55:10;2.95;;;2.65;;
48042;SDS011;33988;47.992;8.820;2024-01-07T02:57:40;2.85;;;2.50;;
48042;SDS011;33988;47.992;8.820;2024-01-07T03:00:07;3.70;;;2.70;;
48042;SDS011;33988;47.992;8.820;2024-01-07T03:02:34;3.10;;;2.58;;
48042;SDS011;33988;47.992;8.820;2024-01-07T03:05:01;2.85;;;2.42;;
48042;SDS011;33988;47.992;8.820;2024-01-07T03:07:29;2.97;;;2.58;;
48042;SDS011;33988;47.992;8.820;2024-01-07T03:09:58;3.13;;;2.63;;
48042;SDS011;33988;47.992;8.820;2024-01-07T03:12:28;2.80;;;2.50;;
48042;SDS011;33988;47.992;8.820;2024-01-07T03:14:57;2.70;;;2.33;;
48042;SDS011;33988;47.992;8.820;2024-01-07T03:17:26;3.70;;;2.53;;
48042;SDS011;33988;47.992;8.820;2024-01-07T03:19:53;3.40;;;2.35;;
48042;SDS011;33988;47.992;8.820;2024-01-07T03:22:20;2.95;;;2.40;;
48042;SDS011;33988;47.992;8.820;2024-01-07T03:24:47;2.72;;;2.45;;
48042;SDS011;33988;47.992;8.820;2024-01-07T03:27:14;2.92;;;2.35;;
48042;SDS011;33988;47.992;8.820;2024-01-07T03:29:44;2.70;;;2.15;;
48042;SDS011;33988;47.992;8.820;2024-01-07T03:32:11;3.25;;;2.60;;
48042;SDS011;33988;47.992;8.820;2024-01-07T03:34:38;3.45;;;2.40;;
48042;SDS011;33988;47.992;8.820;2024-01-07T03:37:06;2.72;;;2.22;;
48042;SDS011;33988;47.992;8.820;2024-01-07T03:39:33;2.85;;;2.42;;
48042;SDS011;33988;47.992;8.820;2024-01-07T03:42:01;2.60;;;2.20;;
48042;SDS011;33988;47.992;8.820;2024-01-07T03:44:38;2.75;;;2.30;;
48042;SDS011;33988;47.992;8.820;2024-01-07T03:47:05;2.42;;;2.13;;
48042;SDS011;33988;47.992;8.820;2024-01-07T03:49:38;2.97;;;2.33;;
48042;SDS011;33988;47.992;8.820;2024-01-07T03:52:05;3.63;;;2.47;;
48042;SDS011;33988;47.992;8.820;2024-01-07T03:54:35;3.10;;;2.50;;
48042;SDS011;33988;47.992;8.820;2024-01-07T03:57:02;3.22;;;2.63;;
48042;SDS011;33988;47.992;8.820;2024-01-07T03:59:29;3.20;;;2.38;;
48042;SDS011;33988;47.992;8.820;2024-01-07T04:01:56;2.97;;;2.35;;
48042;SDS011;33988;47.992;8.820;2024-01-07T04:04:24;2.85;;;2.25;;
48042;SDS011;33988;47.992;8.820;2024-01-07T04:06:51;2.63;;;2.40;;
48042;SDS011;33988;47.992;8.820;2024-01-07T04:09:20;2.10;;;1.90;;
48042;SDS011;33988;47.992;8.820;2024-01-07T04:11:49;2.63;;;2.35;;
48042;SDS011;33988;47.992;8.820;2024-01-07T04:14:18;2.40;;;2.17;;
48042;SDS011;33988;47.992;8.820;2024-01-07T04:16:45;2.63;;;2.25;;
48042;SDS011;33988;47.992;8.820;2024-01-07T04:19:13;2.78;;;2.20;;
48042;SDS011;33988;47.992;8.820;2024-01-07T04:21:45;2.83;;;2.40;;
48042;SDS011;33988;47.992;8.820;2024-01-07T04:24:15;3.00;;;2.30;;
48042;SDS011;33988;47.992;8.820;2024-01-07T04:26:42;2.42;;;2.13;;
48042;SDS011;33988;47.992;8.820;2024-01-07T04:29:11;3.13;;;2.30;;
48042;SDS011;33988;47.992;8.820;2024-01-07T04:31:38;2.97;;;2.58;;
48042;SDS011;33988;47.992;8.820;2024-01-07T04:34:05;2.85;;;2.25;;
48042;SDS011;33988;47.992;8.820;2024-01-07T04:36:34;3.25;;;2.35;;
48042;SDS011;33988;47.992;8.820;2024-01-07T04:39:04;2.42;;;2.15;;
48042;SDS011;33988;47.992;8.820;2024-01-07T04:41:31;2.78;;;2.33;;
48042;SDS011;33988;47.992;8.820;2024-01-07T04:44:00;2.85;;;2.40;;
48042;SDS011;33988;47.992;8.820;2024-01-07T04:46:27;5.10;;;2.80;;
48042;SDS011;33988;47.992;8.820;2024-01-07T04:48:54;2.53;;;2.30;;
48042;SDS011;33988;47.992;8.820;2024-01-07T04:51:21;3.78;;;2.60;;
48042;SDS011;33988;47.992;8.820;2024-01-07T04:53:48;3.50;;;2.83;;
48042;SDS011;33988;47.992;8.820;2024-01-07T04:56:17;3.63;;;2.75;;
48042;SDS011;33988;47.992;8.820;2024-01-07T04:58:44;2.85;;;2.42;;
48042;SDS011;33988;47.992;8.820;2024-01-07T05:01:16;3.13;;;2.28;;
48042;SDS011;33988;47.992;8.820;2024-01-07T05:03:43;2.47;;;2.10;;
48042;SDS011;33988;47.992;8.820;2024-01-07T05:06:10;2.90;;;2.60;;
48042;SDS011;33988;47.992;8.820;2024-01-07T05:08:41;3.45;;;2.65;;
48042;SDS011;33988;47.992;8.820;2024-01-07T05:11:08;3.05;;;2.40;;
48042;SDS011;33988;47.992;8.820;2024-01-07T05:13:37;3.30;;;2.45;;
48042;SDS011;33988;47.992;8.820;2024-01-07T05:16:06;2.97;;;2.50;;
48042;SDS011;33988;47.992;8.820;2024-01-07T05:18:34;3.05;;;2.53;;
48042;SDS011;33988;47.992;8.820;2024-01-07T05:21:05;2.53;;;2.05;;
48042;SDS011;33988;47.992;8.820;2024-01-07T05:23:32;2.78;;;2.08;;
48042;SDS011;33988;47.992;8.820;2024-01-07T05:25:59;2.63;;;2.13;;
48042;SDS011;33988;47.992;8.820;2024-01-07T05:28:26;2.35;;;2.10;;
48042;SDS011;33988;47.992;8.820;2024-01-07T05:30:56;2.22;;;2.03;;
48042;SDS011;33988;47.992;8.820;2024-01-07T05:33:28;2.30;;;2.00;;
48042;SDS011;33988;47.992;8.820;2024-01-07T05:35:55;2.10;;;1.77;;
48042;SDS011;33988;47.992;8.820;2024-01-07T05:38:22;2.20;;;1.77;;
48042;SDS011;33988;47.992;8.820;2024-01-07T05:40:49;2.67;;;1.80;;
48042;SDS011;33988;47.992;8.820;2024-01-07T05:43:16;2.00;;;1.60;;
48042;SDS011;33988;47.992;8.820;2024-01-07T05:45:45;2.42;;;2.05;;
48042;SDS011;33988;47.992;8.820;2024-01-07T05:48:17;2.47;;;2.05;;
48042;SDS011;33988;47.992;8.820;2024-01-07T05:50:47;2.05;;;1.70;;
48042;SDS011;33988;47.992;8.820;2024-01-07T05:53:19;1.88;;;1.65;;
48042;SDS011;33988;47.992;8.820;2024-01-07T05:55:46;2.30;;;1.90;;
48042;SDS011;33988;47.992;8.820;2024-01-07T05:58:16;2.30;;;2.10;;
48042;SDS011;33988;47.992;8.820;2024-01-07T06:00:43;2.25;;;1.90;;
48042;SDS011;33988;47.992;8.820;2024-01-07T06:03:10;3.10;;;2.13;;
48042;SDS011;33988;47.992;8.820;2024-01-07T06:05:38;2.10;;;1.80;;
48042;SDS011;33988;47.992;8.820;2024-01-07T06:08:05;2.65;;;2.00;;
48042;SDS011;33988;47.992;8.820;2024-01-07T06:10:36;2.67;;;2.15;;
48042;SDS011;33988;47.992;8.820;2024-01-07T06:13:05;2.67;;;2.00;;
48042;SDS011;33988;47.992;8.820;2024-01-07T06:15:35;2.47;;;1.90;;
48042;SDS011;33988;47.992;8.820;2024-01-07T06:18:04;2.22;;;2.03;;
48042;SDS011;33988;47.992;8.820;2024-01-07T06:20:34;2.10;;;1.77;;
48042;SDS011;33988;47.992;8.820;2024-01-07T06:23:01;2.03;;;1.77;;
48042;SDS011;33988;47.992;8.820;2024-01-07T06:25:30;2.22;;;1.90;;
48042;SDS011;33988;47.992;8.820;2024-01-07T06:27:57;2.28;;;2.00;;
48042;SDS011;33988;47.992;8.820;2024-01-07T06:30:24;1.92;;;1.70;;
48042;SDS011;33988;47.992;8.820;2024-01-07T06:32:56;2.00;;;1.67;;
48042;SDS011;33988;47.992;8.820;2024-01-07T06:35:23;2.20;;;1.80;;
48042;SDS011;33988;47.992;8.820;2024-01-07T06:37:50;2.25;;;2.03;;
48042;SDS011;33988;47.992;8.820;2024-01-07T06:40:20;2.30;;;2.10;;
48042;SDS011;33988;47.992;8.820;2024-01-07T06:42:50;2.30;;;1.98;;
48042;SDS011;33988;47.992;8.820;2024-01-07T06:45:22;2.45;;;2.15;;
48042;SDS011;33988;47.992;8.820;2024-01-07T06:47:56;2.58;;;2.15;;
48042;SDS011;33988;47.992;8.820;2024-01-07T06:50:24;2.30;;;2.10;;
48042;SDS011;33988;47.992;8.820;2024-01-07T06:52:51;2.90;;;1.95;;
48042;SDS011;33988;47.992;8.820;2024-01-07T06:55:18;2.78;;;1.90;;
48042;SDS011;33988;47.992;8.820;2024-01-07T06:57:45;3.28;;;2.15;;
48042;SDS011;33988;47.992;8.820;2024-01-07T07:00:12;2.70;;;2.30;;
48042;SDS011;33988;47.992;8.820;2024-01-07T07:02:43;4.15;;;2.30;;
48042;SDS011;33988;47.992;8.820;2024-01-07T07:05:10;2.80;;;2.40;;
48042;SDS011;33988;47.992;8.820;2024-01-07T07:10:09;2.25;;;1.50;;
48042;SDS011;33988;47.992;8.820;2024-01-07T07:12:36;2.10;;;1.90;;
48042;SDS011;33988;47.992;8.820;2024-01-07T07:15:05;2.47;;;2.22;;
48042;SDS011;33988;47.992;8.820;2024-01-07T07:17:39;2.65;;;2.17;;
48042;SDS011;33988;47.992;8.820;2024-01-07T07:20:06;2.38;;;2.10;;
48042;SDS011;33988;47.992;8.820;2024-01-07T07:22:37;3.80;;;2.65;;
48042;SDS011;33988;47.992;8.820;2024-01-07T07:25:05;3.50;;;2.35;;
48042;SDS011;33988;47.992;8.820;2024-01-07T07:27:35;4.85;;;2.85;;
48042;SDS011;33988;47.992;8.820;2024-01-07T07:30:05;3.22;;;2.50;;
48042;SDS011;33988;47.992;8.820;2024-01-07T07:32:33;3.80;;;2.85;;
48042;SDS011;33988;47.992;8.820;2024-01-07T07:35:02;5.20;;;3.30;;
48042;SDS011;33988;47.992;8.820;2024-01-07T07:37:30;6.25;;;4.15;;
48042;SDS011;33988;47.992;8.820;2024-01-07T07:39:57;5.25;;;3.63;;
48042;SDS011;33988;47.992;8.820;2024-01-07T07:42:23;6.03;;;3.80;;
48042;SDS011;33988;47.992;8.820;2024-01-07T07:44:54;6.28;;;3.63;;
48042;SDS011;33988;47.992;8.820;2024-01-07T07:47:21;4.13;;;3.22;;
48042;SDS011;33988;47.992;8.820;2024-01-07T07:49:50;6.15;;;3.58;;
48042;SDS011;33988;47.992;8.820;2024-01-07T07:52:17;5.57;;;3.55;;
48042;SDS011;33988;47.992;8.820;2024-01-07T07:54:52;4.78;;;3.05;;
48042;SDS011;33988;47.992;8.820;2024-01-07T07:57:21;4.10;;;2.90;;
48042;SDS011;33988;47.992;8.820;2024-01-07T07:59:52;3.92;;;2.85;;
48042;SDS011;33988;47.992;8.820;2024-01-07T08:02:22;5.32;;;3.20;;
48042;SDS011;33988;47.992;8.820;2024-01-07T08:04:49;4.32;;;3.28;;
48042;SDS011;33988;47.992;8.820;2024-01-07T08:07:18;4.32;;;3.03;;
48042;SDS011;33988;47.992;8.820;2024-01-07T08:09:45;4.60;;;3.33;;
48042;SDS011;33988;47.992;8.820;2024-01-07T08:12:13;7.25;;;2.67;;
48042;SDS011;33988;47.992;8.820;2024-01-07T08:14:40;3.42;;;2.60;;
48042;SDS011;33988;47.992;8.820;2024-01-07T08:17:07;3.40;;;2.55;;
48042;SDS011;33988;47.992;8.820;2024-01-07T08:19:36;2.22;;;2.03;;
48042;SDS011;33988;47.992;8.820;2024-01-07T08:22:06;2.58;;;2.13;;
48042;SDS011;33988;47.992;8.820;2024-01-07T08:24:36;2.47;;;2.08;;
48042;SDS011;33988;47.992;8.820;2024-01-07T08:29:32;2.13;;;1.80;;
48042;SDS011;33988;47.992;8.820;2024-01-07T08:32:04;2.05;;;1.85;;
48042;SDS011;33988;47.992;8.820;2024-01-07T08:34:31;3.00;;;2.20;;
48042;SDS011;33988;47.992;8.820;2024-01-07T08:37:03;3.35;;;2.13;;
48042;SDS011;33988;47.992;8.820;2024-01-07T08:39:30;2.35;;;1.92;;
48042;SDS011;33988;47.992;8.820;2024-01-07T08:41:57;2.63;;;2.28;;
48042;SDS011;33988;47.992;8.820;2024-01-07T08:44:25;2.08;;;1.65;;
48042;SDS011;33988;47.992;8.820;2024-01-07T08:46:55;1.60;;;1.50;;
48042;SDS011;33988;47.992;8.820;2024-01-07T08:49:24;1.50;;;1.40;;
48042;SDS011;33988;47.992;8.820;2024-01-07T08:51:54;1.40;;;1.30;;
48042;SDS011;33988;47.992;8.820;2024-01-07T08:54:23;2.40;;;1.98;;
48042;SDS011;33988;47.992;8.820;2024-01-07T08:56:50;2.15;;;1.95;;
48042;SDS011;33988;47.992;8.820;2024-01-07T08:59:22;1.50;;;1.40;;
48042;SDS011;33988;47.992;8.820;2024-01-07T09:01:51;1.63;;;1.52;;
48042;SDS011;33988;47.992;8.820;2024-01-07T09:04:18;1.38;;;1.27;;
48042;SDS011;33988;47.992;8.820;2024-01-07T09:06:50;1.90;;;1.67;;
48042;SDS011;33988;47.992;8.820;2024-01-07T09:09:17;2.47;;;1.65;;
48042;SDS011;33988;47.992;8.820;2024-01-07T09:11:47;1.52;;;1.38;;
48042;SDS011;33988;47.992;8.820;2024-01-07T09:14:18;3.63;;;1.45;;
48042;SDS011;33988;47.992;8.820;2024-01-07T09:16:45;2.00;;;1.42;;
48042;SDS011;33988;47.992;8.820;2024-01-07T09:19:12;1.85;;;1.52;;
48042;SDS011;33988;47.992;8.820;2024-01-07T09:21:40;1.90;;;1.60;;
48042;SDS011;33988;47.992;8.820;2024-01-07T09:24:07;1.70;;;1.60;;
48042;SDS011;33988;47.992;8.820;2024-01-07T09:26:34;2.17;;;1.70;;
48042;SDS011;33988;47.992;8.820;2024-01-07T09:29:07;2.10;;;1.90;;
48042;SDS011;33988;47.992;8.820;2024-01-07T09:31:36;3.20;;;1.80;;
48042;SDS011;33988;47.992;8.820;2024-01-07T09:34:07;2.03;;;1.73;;
48042;SDS011;33988;47.992;8.820;2024-01-07T09:36:34;2.08;;;1.80;;
48042;SDS011;33988;47.992;8.820;2024-01-07T09:39:05;2.33;;;2.00;;
48042;SDS011;33988;47.992;8.820;2024-01-07T09:41:32;1.98;;;1.77;;
48042;SDS011;33988;47.992;8.820;2024-01-07T09:44:00;2.20;;;2.00;;
48042;SDS011;33988;47.992;8.820;2024-01-07T09:46:28;2.85;;;2.05;;
48042;SDS011;33988;47.992;8.820;2024-01-07T09:48:56;2.55;;;2.33;;
48042;SDS011;33988;47.992;8.820;2024-01-07T09:51:26;2.85;;;2.55;;
48042;SDS011;33988;47.992;8.820;2024-01-07T09:53:57;2.97;;;2.45;;
48042;SDS011;33988;47.992;8.820;2024-01-07T09:56:33;2.60;;;2.38;;
48042;SDS011;33988;47.992;8.820;2024-01-07T09:59:08;2.30;;;2.10;;
48042;SDS011;33988;47.992;8.820;2024-01-07T10:01:36;2.38;;;2.08;;
48042;SDS011;33988;47.992;8.820;2024-01-07T10:04:03;3.22;;;2.30;;
48042;SDS011;33988;47.992;8.820;2024-01-07T10:06:31;2.67;;;2.30;;
48042;SDS011;33988;47.992;8.820;2024-01-07T10:08:58;2.95;;;2.15;;
48042;SDS011;33988;47.992;8.820;2024-01-07T10:11:25;3.85;;;2.28;;
48042;SDS011;33988;47.992;8.820;2024-01-07T10:13:52;2.92;;;2.10;;
48042;SDS011;33988;47.992;8.820;2024-01-07T10:16:25;2.45;;;2.25;;
48042;SDS011;33988;47.992;8.820;2024-01-07T10:18:52;2.30;;;2.10;;
48042;SDS011;33988;47.992;8.820;2024-01-07T10:21:21;2.40;;;2.10;;
48042;SDS011;33988;47.992;8.820;2024-01-07T10:23:51;2.83;;;2.47;;
48042;SDS011;33988;47.992;8.820;2024-01-07T10:26:38;3.10;;;2.40;;
48042;SDS011;33988;47.992;8.820;2024-01-07T10:29:09;3.22;;;2.45;;
48042;SDS011;33988;47.992;8.820;2024-01-07T10:31:40;2.58;;;2.33;;
48042;SDS011;33988;47.992;8.820;2024-01-07T10:34:09;4.47;;;2.17;;
48042;SDS011;33988;47.992;8.820;2024-01-07T10:36:36;2.90;;;2.20;;
48042;SDS011;33988;47.992;8.820;2024-01-07T10:39:06;3.80;;;2.60;;
48042;SDS011;33988;47.992;8.820;2024-01-07T10:41:36;2.90;;;2.30;;
48042;SDS011;33988;47.992;8.820;2024-01-07T10:44:08;2.65;;;2.28;;
48042;SDS011;33988;47.992;8.820;2024-01-07T10:46:37;3.53;;;2.80;;
48042;SDS011;33988;47.992;8.820;2024-01-07T10:49:11;2.47;;;2.17;;
48042;SDS011;33988;47.992;8.820;2024-01-07T10:52:02;2.42;;;2.05;;
48042;SDS011;33988;47.992;8.820;2024-01-07T10:54:37;2.92;;;2.58;;
48042;SDS011;33988;47.992;8.820;2024-01-07T11:00:16;14.57;;;7.03;;
48042;SDS011;33988;47.992;8.820;2024-01-07T11:03:09;8.02;;;5.10;;
48042;SDS011;33988;47.992;8.820;2024-01-07T11:05:44;4.32;;;3.50;;
48042;SDS011;33988;47.992;8.820;2024-01-07T11:08:20;4.40;;;3.28;;
48042;SDS011;33988;47.992;8.820;2024-01-07T11:10:58;3.47;;;3.17;;
48042;SDS011;33988;47.992;8.820;2024-01-07T11:13:36;3.95;;;3.42;;
48042;SDS011;33988;47.992;8.820;2024-01-07T11:16:06;3.13;;;2.60;;
48042;SDS011;33988;47.992;8.820;2024-01-07T11:18:45;3.55;;;3.10;;
48042;SDS011;33988;47.992;8.820;2024-01-07T11:23:51;2.38;;;1.95;;
48042;SDS011;33988;47.992;8.820;2024-01-07T11:26:20;2.92;;;2.50;;
48042;SDS011;33988;47.992;8.820;2024-01-07T11:28:53;3.50;;;2.40;;
48042;SDS011;33988;47.992;8.820;2024-01-07T11:34:09;3.05;;;2.70;;
48042;SDS011;33988;47.992;8.820;2024-01-07T11:36:36;3.63;;;3.00;;
48042;SDS011;33988;47.992;8.820;2024-01-07T11:39:06;3.25;;;2.65;;
48042;SDS011;33988;47.992;8.820;2024-01-07T11:41:35;3.10;;;2.42;;
48042;SDS011;33988;47.992;8.820;2024-01-07T11:44:03;4.50;;;2.97;;
48042;SDS011;33988;47.992;8.820;2024-01-07T11:46:32;3.72;;;2.80;;
48042;SDS011;33988;47.992;8.820;2024-01-07T11:49:01;3.47;;;2.50;;
48042;SDS011;33988;47.992;8.820;2024-01-07T11:51:29;3.45;;;2.60;;
48042;SDS011;33988;47.992;8.820;2024-01-07T11:53:59;3.42;;;2.90;;
48042;SDS011;33988;47.992;8.820;2024-01-07T11:56:28;3.13;;;2.72;;
48042;SDS011;33988;47.992;8.820;2024-01-07T11:58:59;4.72;;;2.92;;
48042;SDS011;33988;47.992;8.820;2024-01-07T12:01:27;3.63;;;2.85;;
48042;SDS011;33988;47.992;8.820;2024-01-07T12:03:56;5.95;;;3.13;;
48042;SDS011;33988;47.992;8.820;2024-01-07T12:06:26;3.35;;;2.88;;
48042;SDS011;33988;47.992;8.820;2024-01-07T12:08:53;3.22;;;2.67;;
48042;SDS011;33988;47.992;8.820;2024-01-07T12:11:23;3.53;;;2.80;;
48042;SDS011;33988;47.992;8.820;2024-01-07T12:13:50;4.10;;;2.90;;
48042;SDS011;33988;47.992;8.820;2024-01-07T12:16:17;3.97;;;2.90;;
48042;SDS011;33988;47.992;8.820;2024-01-07T12:18:44;4.43;;;2.92;;
48042;SDS011;33988;47.992;8.820;2024-01-07T12:21:14;3.60;;;2.72;;
48042;SDS011;33988;47.992;8.820;2024-01-07T12:23:49;3.47;;;2.47;;
48042;SDS011;33988;47.992;8.820;2024-01-07T12:26:20;3.38;;;2.80;;
48042;SDS011;33988;47.992;8.820;2024-01-07T12:28:56;4.70;;;3.38;;
48042;SDS011;33988;47.992;8.820;2024-01-07T12:31:33;3.33;;;2.55;;
48042;SDS011;33988;47.992;8.820;2024-01-07T12:34:02;3.97;;;3.17;;
48042;SDS011;33988;47.992;8.820;2024-01-07T12:36:29;3.83;;;2.85;;
48042;SDS011;33988;47.992;8.820;2024-01-07T12:38:58;4.63;;;3.05;;
48042;SDS011;33988;47.992;8.820;2024-01-07T12:41:28;3.33;;;2.70;;
48042;SDS011;33988;47.992;8.820;2024-01-07T12:44:00;4.18;;;2.88;;
48042;SDS011;33988;47.992;8.820;2024-01-07T12:46:27;3.83;;;2.80;;
48042;SDS011;33988;47.992;8.820;2024-01-07T12:48:54;3.88;;;2.53;;
48042;SDS011;33988;47.992;8.820;2024-01-07T12:51:21;3.85;;;2.60;;
48042;SDS011;33988;47.992;8.820;2024-01-07T12:53:53;4.25;;;2.95;;
48042;SDS011;33988;47.992;8.820;2024-01-07T12:56:22;4.07;;;2.63;;
48042;SDS011;33988;47.992;8.820;2024-01-07T12:58:52;4.38;;;2.90;;
48042;SDS011;33988;47.992;8.820;2024-01-07T13:01:19;5.00;;;2.60;;
48042;SDS011;33988;47.992;8.820;2024-01-07T13:03:47;5.90;;;3.20;;
48042;SDS011;33988;47.992;8.820;2024-01-07T13:06:18;4.20;;;2.92;;
48042;SDS011;33988;47.992;8.820;2024-01-07T13:08:47;3.47;;;2.53;;
48042;SDS011;33988;47.992;8.820;2024-01-07T13:11:16;3.38;;;2.60;;
48042;SDS011;33988;47.992;8.820;2024-01-07T13:13:44;3.88;;;2.75;;
48042;SDS011;33988;47.992;8.820;2024-01-07T13:16:11;3.42;;;2.55;;
48042;SDS011;33988;47.992;8.820;2024-01-07T13:18:41;3.10;;;2.55;;
48042;SDS011;33988;47.992;8.820;2024-01-07T13:21:07;2.45;;;2.17;;
48042;SDS011;33988;47.992;8.820;2024-01-07T13:23:34;4.55;;;3.05;;
48042;SDS011;33988;47.992;8.820;2024-01-07T13:26:02;4.03;;;2.95;;
48042;SDS011;33988;47.992;8.820;2024-01-07T13:28:32;3.42;;;2.67;;
48042;SDS011;33988;47.992;8.820;2024-01-07T13:33:33;2.97;;;2.42;;
48042;SDS011;33988;47.992;8.820;2024-01-07T13:36:07;3.30;;;2.67;;
48042;SDS011;33988;47.992;8.820;2024-01-07T13:38:38;4.70;;;2.80;;
48042;SDS011;33988;47.992;8.820;2024-01-07T13:41:11;3.80;;;2.53;;
48042;SDS011;33988;47.992;8.820;2024-01-07T13:43:40;4.03;;;2.92;;
48042;SDS011;33988;47.992;8.820;2024-01-07T13:46:07;4.80;;;3.20;;
48042;SDS011;33988;47.992;8.820;2024-01-07T13:48:35;4.05;;;3.22;;
48042;SDS011;33988;47.992;8.820;2024-01-07T13:51:05;6.10;;;3.03;;
48042;SDS011;33988;47.992;8.820;2024-01-07T13:53:34;4.75;;;3.60;;
48042;SDS011;33988;47.992;8.820;2024-01-07T13:56:02;5.03;;;4.05;;
48042;SDS011;33988;47.992;8.820;2024-01-07T13:58:33;4.88;;;2.88;;
48042;SDS011;33988;47.992;8.820;2024-01-07T14:01:00;3.47;;;2.75;;
48042;SDS011;33988;47.992;8.820;2024-01-07T14:03:31;3.63;;;2.83;;
48042;SDS011;33988;47.992;8.820;2024-01-07T14:06:01;5.45;;;2.83;;
48042;SDS011;33988;47.992;8.820;2024-01-07T14:08:28;4.25;;;2.85;;
48042;SDS011;33988;47.992;8.820;2024-01-07T14:10:57;4.68;;;3.03;;
48042;SDS011;33988;47.992;8.820;2024-01-07T14:13:24;5.07;;;3.15;;
48042;SDS011;33988;47.992;8.820;2024-01-07T14:15:51;3.65;;;2.75;;
48042;SDS011;33988;47.992;8.820;2024-01-07T14:18:21;3.15;;;2.42;;
48042;SDS011;33988;47.992;8.820;2024-01-07T14:20:50;3.67;;;2.70;;
48042;SDS011;33988;47.992;8.820;2024-01-07T14:23:17;3.72;;;2.72;;
48042;SDS011;33988;47.992;8.820;2024-01-07T14:25:44;4.38;;;2.92;;
48042;SDS011;33988;47.992;8.820;2024-01-07T14:28:14;3.58;;;2.83;;
48042;SDS011;33988;47.992;8.820;2024-01-07T14:30:43;2.95;;;2.47;;
48042;SDS011;33988;47.992;8.820;2024-01-07T14:33:10;3.70;;;2.83;;
48042;SDS011;33988;47.992;8.820;2024-01-07T14:35:40;4.63;;;2.90;;
48042;SDS011;33988;47.992;8.820;2024-01-07T14:38:12;3.60;;;2.67;;
48042;SDS011;33988;47.992;8.820;2024-01-07T14:40:40;4.07;;;3.15;;
48042;SDS011;33988;47.992;8.820;2024-01-07T14:43:07;4.95;;;2.90;;
48042;SDS011;33988;47.992;8.820;2024-01-07T14:45:37;3.72;;;3.03;;
48042;SDS011;33988;47.992;8.820;2024-01-07T14:48:09;3.80;;;2.55;;
48042;SDS011;33988;47.992;8.820;2024-01-07T14:50:43;3.80;;;3.00;;
48042;SDS011;33988;47.992;8.820;2024-01-07T14:53:14;3.63;;;2.60;;
48042;SDS011;33988;47.992;8.820;2024-01-07T14:55:45;3.42;;;2.60;;
48042;SDS011;33988;47.992;8.820;2024-01-07T14:58:12;3.10;;;2.67;;
48042;SDS011;33988;47.992;8.820;2024-01-07T15:00:41;2.90;;;2.45;;
48042;SDS011;33988;47.992;8.820;2024-01-07T15:03:11;3.70;;;2.38;;
48042;SDS011;33988;47.992;8.820;2024-01-07T15:05:38;3.90;;;2.72;;
48042;SDS011;33988;47.992;8.820;2024-01-07T15:08:06;3.33;;;2.42;;
48042;SDS011;33988;47.992;8.820;2024-01-07T15:10:39;3.30;;;2.47;;
48042;SDS011;33988;47.992;8.820;2024-01-07T15:13:10;2.50;;;2.28;;
48042;SDS011;33988;47.992;8.820;2024-01-07T15:15:45;4.28;;;2.95;;